Time;durP1;ratioP1;P1;durP2;ratioP2;P2;SDS_P1;SDS_P2;PMS_P1;PMS_P2;Temp;Humidity;BMP_temperature;BMP_pressure;BME280_temperature;BME280_humidity;BME280_pressure;Samples;Min_cycle;Max_cycle;Signal;HPM_P1;HPM_P2
2022/10/04 00:01:29;;;;;;;1999.90;999.90;;;12.20;99.90;;;;;;5015993;28;20494;-68
2022/10/04 00:04:10;;;;;;;1999.90;999.90;;;12.10;99.90;;;;;;5036331;28;20438;-68
2022/10/04 00:06:41;;;;;;;1999.90;999.90;;;12.10;99.90;;;;;;5036696;28;20884;-67
2022/10/04 00:09:13;;;;;;;1999.90;999.90;;;12.10;99.90;;;;;;5040397;28;20400;-68
2022/10/04 00:11:43;;;;;;;1999.90;999.90;;;12.10;99.90;;;;;;5039808;28;20424;-68
2022/10/04 00:14:18;;;;;;;1999.90;999.90;;;12.10;99.90;;;;;;5039882;28;20462;-68
2022/10/04 00:16:44;;;;;;;1999.90;999.90;;;12.10;99.90;;;;;;5039255;28;21094;-68
2022/10/04 00:19:19;;;;;;;1999.90;999.90;;;12.10;99.90;;;;;;5039973;28;20415;-67
2022/10/04 00:21:56;;;;;;;1999.90;999.90;;;12.00;99.90;;;;;;5039924;28;20423;-67
2022/10/04 00:24:36;;;;;;;1999.90;999.90;;;12.00;99.90;;;;;;5039976;28;20403;-68
2022/10/04 00:27:24;;;;;;;1999.90;999.90;;;12.00;99.90;;;;;;5039894;28;20774;-67
2022/10/04 00:30:01;;;;;;;1999.90;999.90;;;12.00;99.90;;;;;;5039681;28;20521;-68
2022/10/04 00:32:37;;;;;;;1999.90;999.90;;;12.00;99.90;;;;;;5039527;28;20414;-67
2022/10/04 00:35:23;;;;;;;1999.90;999.90;;;12.00;99.90;;;;;;5035611;28;20568;-67
2022/10/04 00:38:00;;;;;;;1999.90;999.90;;;12.00;99.90;;;;;;5035026;28;20420;-67
2022/10/04 00:40:33;;;;;;;1999.90;999.90;;;12.00;99.90;;;;;;5035308;28;20791;-67
2022/10/04 00:43:09;;;;;;;1999.90;999.90;;;12.00;99.90;;;;;;5022321;28;20465;-67
2022/10/04 00:45:50;;;;;;;1999.90;999.90;;;12.00;99.90;;;;;;5015712;28;20778;-67
2022/10/04 00:48:33;;;;;;;1999.90;999.90;;;12.00;99.90;;;;;;5015341;28;20415;-67
2022/10/04 00:51:30;;;;;;;1999.90;999.90;;;12.00;99.90;;;;;;5015225;28;20455;-67
2022/10/04 00:54:34;;;;;;;1999.90;999.90;;;12.00;99.90;;;;;;4987948;28;20913;-67
2022/10/04 00:57:03;;;;;;;1999.90;999.90;;;12.00;99.90;;;;;;4935280;29;20430;-67
2022/10/04 00:59:40;;;;;;;1999.90;999.90;;;12.00;99.90;;;;;;5002130;28;21002;-67
2022/10/04 01:02:20;;;;;;;1999.90;999.90;;;12.00;99.90;;;;;;5015076;28;20437;-67
2022/10/04 01:05:03;;;;;;;1999.90;999.90;;;12.00;99.90;;;;;;5015164;28;20419;-67
2022/10/04 01:07:42;;;;;;;1999.90;999.90;;;12.00;99.90;;;;;;5014827;28;20417;-67
2022/10/04 01:10:13;;;;;;;1999.90;999.90;;;11.90;99.90;;;;;;5016022;28;20433;-67
2022/10/04 01:12:49;;;;;;;1999.90;999.90;;;11.90;99.90;;;;;;5016675;28;20411;-67
2022/10/04 01:15:44;;;;;;;1999.90;999.90;;;11.90;99.90;;;;;;5016965;28;20452;-67
2022/10/04 01:18:13;;;;;;;1999.90;999.90;;;11.90;99.90;;;;;;5005726;28;20968;-67
2022/10/04 01:20:48;;;;;;;1999.90;999.90;;;11.90;99.90;;;;;;5016825;28;20425;-67
2022/10/04 01:23:49;;;;;;;1999.90;999.90;;;11.90;99.90;;;;;;5017290;28;20400;-68
2022/10/04 01:26:29;;;;;;;1999.90;999.90;;;11.80;99.90;;;;;;4975122;28;20845;-67
2022/10/04 01:28:58;;;;;;;1999.90;999.90;;;11.80;99.90;;;;;;5016628;28;20967;-67
2022/10/04 01:31:25;;;;;;;1999.90;999.90;;;11.80;99.90;;;;;;5017045;28;20438;-66
2022/10/04 01:33:52;;;;;;;1999.90;999.90;;;11.80;99.90;;;;;;5017060;28;20450;-67
2022/10/04 01:36:19;;;;;;;1999.90;999.90;;;11.80;99.90;;;;;;5016473;28;20404;-67
2022/10/04 01:38:45;;;;;;;1999.90;999.90;;;11.80;99.90;;;;;;5016307;28;20400;-67
2022/10/04 01:41:14;;;;;;;1999.90;999.90;;;11.70;99.90;;;;;;5016437;28;20867;-67
2022/10/04 01:43:42;;;;;;;1999.90;999.90;;;11.70;99.90;;;;;;5016807;28;20393;-67
2022/10/04 01:46:12;;;;;;;1999.90;999.90;;;11.60;99.90;;;;;;5016396;28;20416;-67
2022/10/04 01:48:43;;;;;;;1999.90;999.90;;;11.60;99.90;;;;;;5015977;28;20845;-68
2022/10/04 01:51:24;;;;;;;1999.90;999.90;;;11.60;99.90;;;;;;5015987;28;20476;-68
2022/10/04 01:54:03;;;;;;;1999.90;999.90;;;11.60;99.90;;;;;;5015901;28;20404;-67
2022/10/04 01:56:40;;;;;;;1999.90;999.90;;;11.60;99.90;;;;;;5016397;28;20405;-67
2022/10/04 01:59:11;;;;;;;1999.90;999.90;;;11.60;99.90;;;;;;5016050;28;20397;-67
2022/10/04 02:01:45;;;;;;;1999.90;999.90;;;11.60;99.90;;;;;;5015960;28;20464;-67
2022/10/04 02:04:18;;;;;;;1999.90;999.90;;;11.60;99.90;;;;;;5015896;28;20467;-67
2022/10/04 02:06:47;;;;;;;1999.90;999.90;;;11.50;99.90;;;;;;5015512;28;20408;-67
2022/10/04 02:09:17;;;;;;;1999.90;999.90;;;11.50;99.90;;;;;;5015757;28;20464;-68
2022/10/04 02:11:43;;;;;;;1999.90;999.90;;;11.40;99.90;;;;;;5015908;28;20515;-68
2022/10/04 02:14:14;;;;;;;1999.90;999.90;;;11.40;99.90;;;;;;5015778;28;21038;-67
2022/10/04 02:16:44;;;;;;;1999.90;999.90;;;11.40;99.90;;;;;;5016014;28;20419;-67
2022/10/04 02:19:11;;;;;;;1999.90;999.90;;;11.40;99.90;;;;;;5013843;28;20432;-66
2022/10/04 02:21:37;;;;;;;1999.90;999.90;;;11.30;99.90;;;;;;5013639;28;20426;-67
2022/10/04 02:24:04;;;;;;;1999.90;999.90;;;11.20;99.90;;;;;;5013615;28;20925;-67
2022/10/04 02:26:30;;;;;;;1999.90;999.90;;;11.20;99.90;;;;;;5014075;28;20424;-67
2022/10/04 02:28:55;;;;;;;1999.90;999.90;;;11.20;99.90;;;;;;5013498;28;20408;-67
2022/10/04 02:34:07;;;;;;;1999.90;999.90;;;11.10;99.90;;;;;;5013696;28;20318;-67
2022/10/04 02:36:34;;;;;;;1999.90;999.90;;;11.00;99.90;;;;;;5013239;28;20430;-67
2022/10/04 02:39:01;;;;;;;1999.90;999.90;;;11.00;99.90;;;;;;5013603;28;20491;-67
2022/10/04 02:41:32;;;;;;;1999.90;999.90;;;10.90;99.90;;;;;;5015038;28;20424;-67
2022/10/04 02:44:00;;;;;;;1999.90;999.90;;;11.00;99.90;;;;;;5014966;28;20439;-68
2022/10/04 02:46:49;;;;;;;1999.90;999.90;;;11.00;99.90;;;;;;5015055;28;20400;-67
2022/10/04 02:49:26;;;;;;;1999.90;999.90;;;11.00;99.90;;;;;;5014845;28;20400;-67
2022/10/04 02:52:00;;;;;;;1999.90;999.90;;;11.00;99.90;;;;;;5014931;28;20482;-68
2022/10/04 02:54:26;;;;;;;1999.90;999.90;;;11.00;99.90;;;;;;5014994;28;20451;-68
2022/10/04 02:56:54;;;;;;;1999.90;999.90;;;11.00;99.90;;;;;;5014305;28;20446;-67
2022/10/04 02:59:20;;;;;;;1999.90;999.90;;;11.00;99.90;;;;;;5014604;28;20490;-67
2022/10/04 03:01:56;;;;;;;1999.90;999.90;;;11.00;99.90;;;;;;5014455;28;20467;-67
2022/10/04 03:04:25;;;;;;;1999.90;999.90;;;11.10;99.90;;;;;;5015043;28;20414;-67
2022/10/04 03:06:53;;;;;;;1999.90;999.90;;;11.00;99.90;;;;;;5013915;28;20415;-67
2022/10/04 03:09:21;;;;;;;1999.90;999.90;;;10.90;99.90;;;;;;5015098;28;20491;-67
2022/10/04 03:11:48;;;;;;;1999.90;999.90;;;10.90;99.90;;;;;;5014736;28;20427;-67
2022/10/04 03:14:24;;;;;;;1999.90;999.90;;;10.90;99.90;;;;;;5014751;28;20473;-67
2022/10/04 03:16:56;;;;;;;1999.90;999.90;;;10.80;99.90;;;;;;5014585;28;20444;-67
2022/10/04 03:19:25;;;;;;;1999.90;999.90;;;10.80;99.90;;;;;;5015171;28;20920;-68
2022/10/04 03:21:54;;;;;;;1999.90;999.90;;;10.80;99.90;;;;;;5015031;28;20428;-68
2022/10/04 03:24:30;;;;;;;1999.90;999.90;;;10.80;99.90;;;;;;5016609;28;20400;-67
2022/10/04 03:26:58;;;;;;;1999.90;999.90;;;10.70;99.90;;;;;;5016633;28;20407;-67
2022/10/04 03:29:27;;;;;;;1999.90;999.90;;;10.80;99.90;;;;;;5016520;28;20498;-68
2022/10/04 03:31:57;;;;;;;1999.90;999.90;;;10.60;99.90;;;;;;5016117;28;20452;-67
2022/10/04 03:34:33;;;;;;;1999.90;999.90;;;10.70;99.90;;;;;;5016345;28;20448;-67
2022/10/04 03:37:00;;;;;;;1999.90;999.90;;;10.60;99.90;;;;;;5016270;28;20474;-68
2022/10/04 03:39:58;;;;;;;1999.90;999.90;;;10.60;99.90;;;;;;5013056;28;20407;-68
2022/10/04 03:42:27;;;;;;;1999.90;999.90;;;10.60;99.90;;;;;;4969048;28;20420;-68
2022/10/04 03:44:56;;;;;;;1999.90;999.90;;;10.60;99.90;;;;;;5013100;28;20539;-67
2022/10/04 03:47:37;;;;;;;1999.90;999.90;;;10.60;99.90;;;;;;5012310;28;20968;-67
2022/10/04 03:50:22;;;;;;;1999.90;999.90;;;10.60;99.90;;;;;;5013075;28;20431;-68
2022/10/04 03:52:53;;;;;;;1999.90;999.90;;;10.60;99.90;;;;;;5015032;28;20502;-67
2022/10/04 03:55:22;;;;;;;1999.90;999.90;;;10.60;99.90;;;;;;5014085;28;20821;-67
2022/10/04 03:57:48;;;;;;;1999.90;999.90;;;10.50;99.90;;;;;;5013771;28;20779;-68
2022/10/04 04:00:17;;;;;;;1999.90;999.90;;;10.50;99.90;;;;;;5013961;28;20440;-67
2022/10/04 04:03:06;;;;;;;1999.90;999.90;;;10.50;99.90;;;;;;5014134;28;20510;-67
2022/10/04 04:05:43;;;;;;;1999.90;999.90;;;10.40;99.90;;;;;;5013892;28;20435;-68
2022/10/04 04:08:16;;;;;;;1999.90;999.90;;;10.40;99.90;;;;;;5013651;28;20403;-68
2022/10/04 04:10:52;;;;;;;1999.90;999.90;;;10.40;99.90;;;;;;5013820;28;20431;-67
2022/10/04 04:13:26;;;;;;;1999.90;999.90;;;10.40;99.90;;;;;;5013511;28;20494;-67
2022/10/04 04:15:54;;;;;;;1999.90;999.90;;;10.30;99.90;;;;;;5013499;28;20446;-68
2022/10/04 04:18:26;;;;;;;1999.90;999.90;;;10.20;99.90;;;;;;5013148;28;20412;-68
2022/10/04 04:20:58;;;;;;;1999.90;999.90;;;10.20;99.90;;;;;;5013371;28;21001;-68
2022/10/04 04:23:33;;;;;;;1999.90;999.90;;;10.10;99.90;;;;;;5013551;28;20408;-67
2022/10/04 04:26:19;;;;;;;1999.90;999.90;;;10.10;99.90;;;;;;5013504;28;20434;-67
2022/10/04 04:28:47;;;;;;;1999.90;999.90;;;10.10;99.90;;;;;;4999464;28;20423;-67
2022/10/04 04:31:27;;;;;;;1999.90;999.90;;;10.10;99.90;;;;;;5013245;28;20949;-67
2022/10/04 04:34:01;;;;;;;1999.90;999.90;;;10.10;99.90;;;;;;5013315;28;20401;-67
2022/10/04 04:36:30;;;;;;;1999.90;999.90;;;10.00;99.90;;;;;;5013037;28;20417;-67
2022/10/04 04:42:14;;;;;;;1999.90;999.90;;;9.90;99.90;;;;;;5012094;28;20565;-67
2022/10/04 04:44:59;;;;;;;1999.90;999.90;;;9.90;99.90;;;;;;5012436;28;20416;-67
2022/10/04 04:47:43;;;;;;;1999.90;999.90;;;10.00;99.90;;;;;;5012705;28;20402;-67
2022/10/04 04:50:18;;;;;;;1999.90;999.90;;;9.90;99.90;;;;;;5012730;28;20437;-67
2022/10/04 04:52:49;;;;;;;1999.90;999.90;;;9.90;99.90;;;;;;5014417;28;20443;-67
2022/10/04 04:55:28;;;;;;;1999.90;999.90;;;9.90;99.90;;;;;;5016510;28;20564;-68
2022/10/04 04:57:56;;;;;;;1999.90;999.90;;;10.00;99.90;;;;;;5016807;28;20396;-67
2022/10/04 05:00:37;;;;;;;1999.90;999.90;;;10.00;99.90;;;;;;5016662;28;20474;-68
2022/10/04 05:03:17;;;;;;;1999.90;999.90;;;10.00;99.90;;;;;;5019214;28;20422;-67
2022/10/04 05:05:50;;;;;;;1999.90;999.90;;;10.00;99.90;;;;;;5018533;28;20410;-68
2022/10/04 05:08:22;;;;;;;1999.90;999.90;;;10.00;99.90;;;;;;5018216;28;20421;-67
2022/10/04 05:10:56;;;;;;;1999.90;999.90;;;10.00;99.90;;;;;;5018859;28;20445;-68
2022/10/04 05:13:29;;;;;;;1999.90;999.90;;;10.00;99.90;;;;;;5017960;28;20522;-67
2022/10/04 05:15:58;;;;;;;1999.90;999.90;;;10.00;99.90;;;;;;5018924;28;20835;-68
2022/10/04 05:18:27;;;;;;;1999.90;999.90;;;10.00;99.90;;;;;;5018549;28;20426;-67
2022/10/04 05:20:54;;;;;;;1999.90;999.90;;;10.10;99.90;;;;;;5016878;28;20454;-66
2022/10/04 05:23:20;;;;;;;1999.90;999.90;;;10.10;99.90;;;;;;5016434;28;20417;-67
2022/10/04 05:25:46;;;;;;;1999.90;999.90;;;10.00;99.90;;;;;;5016133;28;20403;-68
2022/10/04 05:28:17;;;;;;;1999.90;999.90;;;10.00;99.90;;;;;;5015786;28;20411;-67
2022/10/04 05:31:26;;;;;;;1999.90;999.90;;;10.00;99.90;;;;;;5014971;28;20936;-67
2022/10/04 05:33:57;;;;;;;1999.90;999.90;;;10.10;99.90;;;;;;5015493;28;20498;-68
2022/10/04 05:36:48;;;;;;;1999.90;999.90;;;10.10;99.90;;;;;;5018645;28;20407;-68
2022/10/04 05:39:25;;;;;;;1999.90;999.90;;;10.10;99.90;;;;;;5014771;28;20404;-67
2022/10/04 05:42:11;;;;;;;1999.90;999.90;;;10.20;99.90;;;;;;5014591;28;20419;-67
2022/10/04 05:44:52;;;;;;;1999.90;999.90;;;10.10;99.90;;;;;;5014505;28;20411;-67
2022/10/04 05:47:22;;;;;;;1999.90;999.90;;;10.10;99.90;;;;;;5014321;28;20434;-67
2022/10/04 05:49:51;;;;;;;1999.90;999.90;;;10.10;99.90;;;;;;5014399;28;20864;-67
2022/10/04 05:52:36;;;;;;;1999.90;999.90;;;10.10;99.90;;;;;;5014302;28;20403;-67
2022/10/04 05:55:11;;;;;;;1999.90;999.90;;;10.10;99.90;;;;;;5014192;28;20482;-67
2022/10/04 05:57:46;;;;;;;1999.90;999.90;;;10.10;99.90;;;;;;5013983;28;20430;-67
2022/10/04 06:00:19;;;;;;;1999.90;999.90;;;10.20;99.90;;;;;;5013965;28;20448;-67
2022/10/04 06:02:57;;;;;;;1999.90;999.90;;;10.10;99.90;;;;;;5014076;28;20928;-67
2022/10/04 06:05:52;;;;;;;1999.90;999.90;;;10.10;99.90;;;;;;5013181;28;20413;-67
2022/10/04 06:08:45;;;;;;;1999.90;999.90;;;10.10;99.90;;;;;;5006662;28;20435;-67
2022/10/04 06:11:39;;;;;;;1999.90;999.90;;;10.00;99.90;;;;;;5016004;28;20496;-67
2022/10/04 06:14:16;;;;;;;1999.90;999.90;;;10.00;99.90;;;;;;5014325;28;20449;-67
2022/10/04 06:17:18;;;;;;;1999.90;999.90;;;10.00;99.90;;;;;;5014015;28;20445;-68
2022/10/04 06:20:01;;;;;;;1999.90;999.90;;;10.00;99.90;;;;;;5014220;28;20835;-67
2022/10/04 06:22:26;;;;;;;1999.90;999.90;;;10.00;99.90;;;;;;5014175;28;20407;-68
2022/10/04 06:25:16;;;;;;;1999.90;999.90;;;10.00;99.90;;;;;;5013901;28;20635;-67
2022/10/04 06:27:52;;;;;;;1999.90;999.90;;;10.10;99.90;;;;;;5013864;28;20263;-68
2022/10/04 06:30:19;;;;;;;1999.90;999.90;;;10.10;99.90;;;;;;5013654;28;20434;-67
2022/10/04 06:33:02;;;;;;;1999.90;999.90;;;10.10;99.90;;;;;;5013470;28;20411;-67
2022/10/04 06:35:52;;;;;;;1999.90;999.90;;;10.20;99.90;;;;;;5013467;28;20458;-67
2022/10/04 06:38:58;;;;;;;1999.90;999.90;;;10.20;99.90;;;;;;5013220;28;20405;-67
2022/10/04 06:41:39;;;;;;;1999.90;999.90;;;10.30;99.90;;;;;;4949392;28;20443;-67
2022/10/04 06:44:20;;;;;;;1999.90;999.90;;;10.30;99.90;;;;;;5013384;28;20411;-67
2022/10/04 06:47:32;;;;;;;1999.90;999.90;;;10.30;99.90;;;;;;5013004;28;20403;-67
2022/10/04 06:50:21;;;;;;;1999.90;999.90;;;10.30;99.90;;;;;;4975256;28;20416;-67
2022/10/04 06:52:46;;;;;;;1999.90;999.90;;;10.40;99.90;;;;;;5013183;28;20411;-67
2022/10/04 06:55:32;;;;;;;1999.90;999.90;;;10.50;99.90;;;;;;5013676;28;20842;-68
2022/10/04 06:58:16;;;;;;;1999.90;999.90;;;10.50;99.90;;;;;;5016897;28;20168;-67
2022/10/04 07:01:02;;;;;;;1999.90;999.90;;;10.50;99.90;;;;;;5017412;28;20979;-67
2022/10/04 07:03:44;;;;;;;1999.90;999.90;;;10.60;99.90;;;;;;5016814;28;20407;-67
2022/10/04 07:06:11;;;;;;;1999.90;999.90;;;10.70;99.90;;;;;;5014246;28;20411;-67
2022/10/04 07:08:47;;;;;;;1999.90;999.90;;;10.90;99.90;;;;;;5013838;28;20539;-68
2022/10/04 07:11:21;;;;;;;1999.90;999.90;;;11.00;99.90;;;;;;5013506;28;20415;-67
2022/10/04 07:13:49;;;;;;;1999.90;999.90;;;11.20;99.90;;;;;;5015510;28;20898;-67
2022/10/04 07:16:15;;;;;;;1999.90;999.90;;;11.40;99.90;;;;;;5014299;28;20457;-67
2022/10/04 07:19:02;;;;;;;1999.90;999.90;;;11.50;99.90;;;;;;5013269;28;20404;-67
2022/10/04 07:21:52;;;;;;;1999.90;999.90;;;11.60;99.90;;;;;;5013657;28;20185;-67
2022/10/04 07:24:25;;;;;;;1999.90;999.90;;;11.70;99.90;;;;;;5012655;28;20407;-67
2022/10/04 07:26:53;;;;;;;1999.90;999.90;;;11.70;99.90;;;;;;5012451;28;20461;-67
2022/10/04 07:29:35;;;;;;;1999.90;999.90;;;11.80;99.90;;;;;;5012458;28;20435;-67
2022/10/04 07:32:10;;;;;;;1999.90;999.90;;;11.80;99.90;;;;;;5012596;28;20432;-67
2022/10/04 07:34:47;;;;;;;1999.90;999.90;;;11.80;99.90;;;;;;5012467;28;20462;-67
2022/10/04 07:37:13;;;;;;;1999.90;999.90;;;11.90;99.90;;;;;;5012297;28;20399;-67
2022/10/04 07:39:56;;;;;;;1999.90;999.90;;;11.90;99.90;;;;;;5012321;28;20827;-67
2022/10/04 07:42:28;;;;;;;1999.90;999.90;;;11.90;99.90;;;;;;5012430;28;20404;-67
2022/10/04 07:45:02;;;;;;;1999.90;999.90;;;11.90;99.90;;;;;;5012233;28;20409;-67
2022/10/04 07:47:30;;;;;;;1999.90;999.90;;;12.00;99.90;;;;;;5012058;28;20925;-67
2022/10/04 07:49:57;;;;;;;1999.90;999.90;;;12.00;99.90;;;;;;5012246;28;20985;-67
2022/10/04 07:52:29;;;;;;;1999.90;999.90;;;12.10;99.90;;;;;;5012369;28;20413;-67
2022/10/04 07:55:21;;;;;;;1999.90;999.90;;;12.10;99.90;;;;;;5012178;28;20543;-67
2022/10/04 07:58:17;;;;;;;1999.90;999.90;;;12.20;99.90;;;;;;5012904;28;20428;-67
2022/10/04 08:00:54;;;;;;;1999.90;999.90;;;12.30;99.90;;;;;;5012954;28;20440;-67
2022/10/04 08:04:01;;;;;;;1999.90;999.90;;;12.40;99.90;;;;;;5012438;28;20400;-67
2022/10/04 08:06:33;;;;;;;1999.90;999.90;;;12.40;99.90;;;;;;5012099;28;20400;-67
2022/10/04 08:09:17;;;;;;;1999.90;999.90;;;12.50;99.90;;;;;;5012077;28;20425;-67
2022/10/04 08:12:01;;;;;;;1999.90;999.90;;;12.50;99.90;;;;;;5016649;28;20446;-68
2022/10/04 08:14:56;;;;;;;1999.90;999.90;;;12.60;99.90;;;;;;5012131;28;20449;-67
2022/10/04 08:17:31;;;;;;;1999.90;999.90;;;12.70;99.90;;;;;;5012030;28;20500;-67
2022/10/04 08:20:06;;;;;;;1999.90;999.90;;;12.80;99.90;;;;;;5012053;28;20839;-67
2022/10/04 08:22:50;;;;;;;1999.90;999.90;;;12.90;99.90;;;;;;5011988;28;20430;-67
2022/10/04 08:25:46;;;;;;;1999.90;999.90;;;13.00;99.90;;;;;;5011965;28;20412;-67
2022/10/04 08:31:38;;;;;;;1999.90;999.90;;;13.00;99.90;;;;;;5016011;28;20470;-67
2022/10/04 08:34:45;;;;;;;1999.90;999.90;;;13.10;99.90;;;;;;5017254;28;20837;-67
2022/10/04 08:37:32;;;;;;;1999.90;999.90;;;13.20;99.90;;;;;;4948009;28;20989;-68
2022/10/04 08:40:09;;;;;;;1999.90;999.90;;;13.20;99.90;;;;;;5018465;28;20409;-67
2022/10/04 08:43:10;;;;;;;1999.90;999.90;;;13.20;99.90;;;;;;5016204;28;20405;-68
2022/10/04 08:45:57;;;;;;;1999.90;999.90;;;13.30;99.90;;;;;;5016479;28;20419;-68
2022/10/04 08:48:50;;;;;;;1999.90;999.90;;;13.40;99.90;;;;;;5015586;28;20498;-68
2022/10/04 08:51:44;;;;;;;1999.90;999.90;;;13.50;99.90;;;;;;5015555;28;20425;-67
2022/10/04 08:54:39;;;;;;;1999.90;999.90;;;13.60;99.90;;;;;;5015699;28;20411;-67
2022/10/04 08:57:18;;;;;;;1999.90;999.90;;;13.60;99.90;;;;;;5015170;28;20397;-67
2022/10/04 09:00:03;;;;;;;1999.90;999.90;;;13.70;99.90;;;;;;5018147;28;20482;-67
2022/10/04 09:02:38;;;;;;;1999.90;999.90;;;13.80;99.90;;;;;;5015851;28;20401;-67
2022/10/04 09:05:41;;;;;;;1999.90;999.90;;;13.90;99.90;;;;;;5015222;28;20411;-67
2022/10/04 09:08:22;;;;;;;1999.90;999.90;;;13.90;99.90;;;;;;5014896;28;20400;-67
2022/10/04 09:11:11;;;;;;;1999.90;999.90;;;14.00;99.90;;;;;;5015021;28;20507;-67
2022/10/04 09:13:46;;;;;;;1999.90;999.90;;;14.00;99.90;;;;;;5018051;28;20459;-67
2022/10/04 09:16:34;;;;;;;1999.90;999.90;;;14.10;99.90;;;;;;5018437;28;20462;-68
2022/10/04 09:19:31;;;;;;;1999.90;999.90;;;14.20;99.90;;;;;;5015066;28;20783;-67
2022/10/04 09:22:04;;;;;;;1999.90;999.90;;;14.30;99.90;;;;;;5014870;28;20425;-67
2022/10/04 09:24:38;;;;;;;1999.90;999.90;;;14.40;99.90;;;;;;5015284;28;20464;-68
2022/10/04 09:27:33;;;;;;;1999.90;999.90;;;14.50;99.90;;;;;;5015220;28;20501;-67
2022/10/04 09:30:10;;;;;;;1999.90;999.90;;;14.60;99.90;;;;;;5015626;28;20772;-68
2022/10/04 09:32:48;;;;;;;1999.90;999.90;;;14.70;99.90;;;;;;5016277;28;20404;-68
2022/10/04 09:35:23;;;;;;;1999.90;999.90;;;14.80;99.90;;;;;;5015770;28;20477;-67
2022/10/04 09:37:57;;;;;;;1999.90;999.90;;;15.00;99.90;;;;;;5014649;28;20409;-68
2022/10/04 09:40:33;;;;;;;1999.90;999.90;;;15.10;99.90;;;;;;5013774;28;20426;-68
2022/10/04 09:43:16;;;;;;;1999.90;999.90;;;15.20;99.90;;;;;;5014538;28;20400;-67
2022/10/04 09:46:12;;;;;;;1999.90;999.90;;;15.30;99.90;;;;;;5014773;28;20403;-68
2022/10/04 09:48:53;;;;;;;1999.90;999.90;;;15.40;99.90;;;;;;5014786;28;20403;-68
2022/10/04 09:51:56;;;;;;;1999.90;999.90;;;15.60;99.90;;;;;;5017212;28;20871;-68
2022/10/04 09:54:57;;;;;;;1999.90;999.90;;;15.70;99.90;;;;;;5016616;28;20452;-68
2022/10/04 09:58:06;;;;;;;1999.90;999.90;;;15.80;99.90;;;;;;4934042;29;20418;-67
2022/10/04 10:00:37;;;;;;;1999.90;999.90;;;16.00;99.90;;;;;;5013909;28;20452;-67
2022/10/04 10:03:27;;;;;;;1999.90;999.90;;;16.10;99.90;;;;;;5014154;28;20440;-67
2022/10/04 10:06:03;;;;;;;1999.90;999.90;;;16.20;99.90;;;;;;5014005;28;20895;-67
2022/10/04 10:09:05;;;;;;;1999.90;999.90;;;16.30;99.90;;;;;;5013761;28;20409;-67
2022/10/04 10:14:50;;;;;;;1999.90;999.90;;;16.70;99.90;;;;;;5013876;28;20516;-67
2022/10/04 10:17:39;;;;;;;1999.90;999.90;;;16.80;99.90;;;;;;5013727;28;20400;-67
2022/10/04 10:20:17;;;;;;;1999.90;999.90;;;16.80;99.90;;;;;;5014357;28;20477;-68
2022/10/04 10:23:01;;;;;;;1999.90;999.90;;;16.80;99.90;;;;;;5014512;28;20402;-68
2022/10/04 10:25:39;;;;;;;1999.90;999.90;;;16.90;99.90;;;;;;5014623;28;20436;-68
2022/10/04 10:28:18;;;;;;;1999.90;999.90;;;17.10;99.90;;;;;;5014441;28;20434;-68
2022/10/04 10:30:58;;;;;;;1999.90;999.90;;;17.20;99.90;;;;;;5014567;28;20422;-67
2022/10/04 10:33:58;;;;;;;1999.90;999.90;;;17.30;99.90;;;;;;5014759;28;20414;-67
2022/10/04 10:36:23;;;;;;;1999.90;999.90;;;17.40;99.90;;;;;;5014748;28;20454;-68
2022/10/04 10:38:59;;;;;;;1999.90;999.90;;;17.50;99.90;;;;;;5014021;28;20407;-67
2022/10/04 10:41:34;;;;;;;1999.90;999.90;;;17.50;99.90;;;;;;5012739;28;20180;-67
2022/10/04 10:44:22;;;;;;;1999.90;999.90;;;17.70;99.90;;;;;;5016187;28;20406;-68
2022/10/04 10:47:18;;;;;;;1999.90;999.90;;;17.80;99.90;;;;;;5016472;28;20447;-68
2022/10/04 10:49:44;;;;;;;1999.90;999.90;;;17.90;99.90;;;;;;5015269;28;20408;-68
2022/10/04 10:52:41;;;;;;;1999.90;999.90;;;18.10;99.90;;;;;;5016498;28;20424;-68
2022/10/04 10:55:31;;;;;;;1999.90;999.90;;;18.30;99.90;;;;;;5015116;28;20204;-68
2022/10/04 10:57:59;;;;;;;1999.90;999.90;;;18.50;99.90;;;;;;5016233;28;20497;-68
2022/10/04 11:00:57;;;;;;;1999.90;999.90;;;18.60;99.90;;;;;;5015741;28;20449;-68
2022/10/04 11:03:57;;;;;;;1999.90;999.90;;;18.70;99.90;;;;;;4983586;28;20415;-69
2022/10/04 11:06:28;;;;;;;1999.90;999.90;;;18.80;99.90;;;;;;5016471;28;20398;-68
2022/10/04 11:09:39;;;;;;;1999.90;999.90;;;19.00;99.90;;;;;;5015699;28;20417;-67
2022/10/04 11:12:16;;;;;;;1999.90;999.90;;;19.10;99.90;;;;;;4984787;28;20450;-68
2022/10/04 11:15:01;;;;;;;1999.90;999.90;;;19.30;99.90;;;;;;5052915;23;20573;-71
2022/10/04 11:17:57;;;;;;;1999.90;999.90;;;19.40;99.90;;;;;;5012558;28;20427;-71
2022/10/04 11:20:59;;;;;;;1999.90;999.90;;;19.50;99.90;;;;;;5013017;28;20418;-71
2022/10/04 11:23:30;;;;;;;1999.90;999.90;;;19.70;99.90;;;;;;5020640;28;20946;-71
2022/10/04 11:26:08;;;;;;;1999.90;999.90;;;20.10;99.90;;;;;;5032174;28;20975;-71
2022/10/04 11:28:42;;;;;;;1999.90;999.90;;;20.50;99.90;;;;;;5032295;28;20408;-71
2022/10/04 11:31:26;;;;;;;1999.90;999.90;;;21.20;99.90;;;;;;5032323;28;20401;-71
2022/10/04 11:34:28;;;;;;;1999.90;999.90;;;22.10;99.90;;;;;;5032206;28;20421;-71
2022/10/04 11:37:15;;;;;;;1999.90;999.90;;;23.40;99.90;;;;;;5032198;28;20423;-71
2022/10/04 11:40:16;;;;;;;1999.90;999.90;;;24.80;99.90;;;;;;5032109;28;20450;-71
2022/10/04 11:42:51;;;;;;;1999.90;999.90;;;25.80;93.20;;;;;;5032631;28;20533;-71
2022/10/04 11:45:32;;;;;;;1999.90;999.90;;;26.70;83.10;;;;;;5032258;28;20399;-71
2022/10/04 11:48:15;;;;;;;1999.90;999.90;;;27.30;71.20;;;;;;5031925;28;20516;-71
2022/10/04 11:51:17;;;;;;;1999.90;999.90;;;27.40;52.20;;;;;;5032055;28;20821;-72
2022/10/04 11:54:12;;;;;;;1999.90;999.90;;;27.50;52.80;;;;;;5029258;28;20927;-71
2022/10/04 11:57:08;;;;;;;1999.90;999.90;;;28.10;47.50;;;;;;5031697;28;20408;-71
2022/10/04 12:00:01;;;;;;;1999.90;999.90;;;28.80;43.90;;;;;;5030330;28;20426;-71
2022/10/04 12:02:39;;;;;;;1999.90;999.90;;;29.60;40.50;;;;;;5027515;28;20414;-72
2022/10/04 12:05:22;;;;;;;1999.90;999.90;;;30.20;33.60;;;;;;5030477;28;20394;-70
2022/10/04 12:08:01;;;;;;;1999.90;999.90;;;30.70;30.70;;;;;;5030283;28;20472;-71
2022/10/04 12:10:41;;;;;;;1999.90;999.90;;;31.10;27.20;;;;;;5031364;28;20464;-70
2022/10/04 12:13:46;;;;;;;1999.90;999.90;;;31.20;23.80;;;;;;5030538;28;20441;-71
2022/10/04 12:16:44;;;;;;;1999.90;999.90;;;31.50;23.80;;;;;;5031305;28;20803;-71
2022/10/04 12:19:24;;;;;;;1999.90;999.90;;;31.40;21.10;;;;;;5031191;28;20445;-70
2022/10/04 12:21:53;;;;;;;1999.90;999.90;;;31.50;19.40;;;;;;5031368;28;20399;-71
2022/10/04 12:24:25;;;;;;;1999.90;999.90;;;32.00;18.70;;;;;;5031125;28;20994;-71
2022/10/04 12:27:27;;;;;;;1999.90;999.90;;;32.40;18.40;;;;;;5030465;28;20438;-71
2022/10/04 12:30:20;;;;;;;1999.90;999.90;;;32.50;17.40;;;;;;5031254;28;20896;-71
2022/10/04 12:33:22;;;;;;;1999.90;999.90;;;32.50;16.30;;;;;;5030989;28;20411;-70
2022/10/04 12:36:19;;;;;;;1999.90;999.90;;;32.70;14.80;;;;;;4981328;28;20485;-71
2022/10/04 12:39:17;;;;;;;1999.90;999.90;;;32.50;14.10;;;;;;5032142;28;20418;-72
2022/10/04 12:42:05;;;;;;;1999.90;999.90;;;32.40;14.50;;;;;;4946340;28;20474;-71
2022/10/04 12:45:21;;;;;;;1999.90;999.90;;;32.70;14.10;;;;;;5016001;28;20423;-71
2022/10/04 12:48:14;;;;;;;1999.90;999.90;;;33.00;15.10;;;;;;4990593;28;20403;-71
2022/10/04 12:51:10;;;;;;;1999.90;999.90;;;32.90;12.20;;;;;;5033424;28;20414;-71
2022/10/04 12:53:56;;;;;;;1999.90;999.90;;;33.20;11.60;;;;;;5034064;28;20419;-72
2022/10/04 12:56:37;;;;;;;1999.90;999.90;;;33.50;11.40;;;;;;5033841;28;20465;-71
2022/10/04 12:59:21;;;;;;;1999.90;999.90;;;33.60;12.20;;;;;;5034621;28;20391;-71
2022/10/04 13:01:53;;;;;;;1999.90;999.90;;;33.60;11.30;;;;;;5033766;28;20395;-71
2022/10/04 13:04:30;;;;;;;1999.90;999.90;;;33.60;12.00;;;;;;5033102;28;20411;-71
2022/10/04 13:07:14;;;;;;;1999.90;999.90;;;33.70;10.90;;;;;;5033326;28;20473;-71
2022/10/04 13:10:01;;;;;;;1999.90;999.90;;;34.10;9.10;;;;;;5033781;28;20399;-71
2022/10/04 13:12:51;;;;;;;1999.90;999.90;;;34.50;8.00;;;;;;5034026;28;20484;-71